Terminal Aerodrome Forecast
Issued by NWS

Home | Current Version | Previous Version | Text Only | Print | Product List | Glossary On
Versions: 1 2 3 4 5 6 7 8 9 10 11 12 13 14 15 16 17 18 19
000
FTUS45 KABQ 171136
TAFFMN
TAF
KFMN 171136Z 1712/1812 VRB04KT P6SM VCSH SCT025 OVC045
      TEMPO 1712/1716 1/2SM FG BKN002
     FM171600 VRB05KT P6SM FEW025 BKN050
     FM180200 VRB05KT P6SM SCT070
     FM181100 08005KT P6SM SCT004=

USA.gov is the U.S. government's official web portal to all federal, state and local government web resources and services.